TAM3128 SBGR-SBCG
Flight info
| Callsign | TAM3128 |
|---|---|
| Flight time | 1h 22m |
| Altitude | 34000 |
| Route | EGEVA UM415 FIGOS |
| Aircraft | A321/M-SDE2FGHIM1RWXYZ/LB1 |
Departure
| Time | 2026-04-30 20:44 |
|---|---|
| Airport | São Paulo/Guarulhos–Governor André Franco Montoro International Airport (SBGR) |
Arrival
| Time | 2026-04-30 22:06 |
|---|---|
| Airport | Campo Grande Airport (SBCG) |
| Time | Latitude | Longitude | Altitude | Speed | Heading |
|---|---|---|---|---|---|
| 2026-04-30 20:32 | -23.42794 | -46.48068 | 2447 ft | 0 kts | 84° |
| 2026-04-30 20:36 | -23.42795 | -46.48083 | 2447 ft | 2 kts | 84° |
| 2026-04-30 20:36 | -23.42797 | -46.48099 | 2447 ft | 2 kts | 84° |
| 2026-04-30 20:36 | -23.42790 | -46.48130 | 2447 ft | 2 kts | 141° |
| 2026-04-30 20:37 | -23.42778 | -46.48136 | 2447 ft | 0 kts | 171° |
| 2026-04-30 20:37 | -23.42777 | -46.48136 | 2447 ft | 1 kts | 173° |
| 2026-04-30 20:37 | -23.42803 | -46.48133 | 2447 ft | 2 kts | 175° |
| 2026-04-30 20:37 | -23.42809 | -46.48133 | 2447 ft | 0 kts | 175° |
| 2026-04-30 20:40 | -23.42850 | -46.48129 | 2447 ft | 7 kts | 175° |
| 2026-04-30 20:40 | -23.42904 | -46.48131 | 2447 ft | 7 kts | 191° |
| 2026-04-30 20:40 | -23.42954 | -46.48139 | 2447 ft | 6 kts | 180° |
| 2026-04-30 20:41 | -23.43051 | -46.48131 | 2447 ft | 8 kts | 174° |
| 2026-04-30 20:41 | -23.43114 | -46.48122 | 2447 ft | 9 kts | 167° |
| 2026-04-30 20:41 | -23.43184 | -46.48113 | 2446 ft | 10 kts | 205° |
| 2026-04-30 20:41 | -23.43212 | -46.48180 | 2446 ft | 9 kts | 253° |
| 2026-04-30 20:42 | -23.43229 | -46.48246 | 2446 ft | 8 kts | 253° |
| 2026-04-30 20:42 | -23.43247 | -46.48306 | 2446 ft | 8 kts | 245° |
| 2026-04-30 20:42 | -23.43380 | -46.48339 | 2446 ft | 13 kts | 163° |
| 2026-04-30 20:43 | -23.43416 | -46.48293 | 2446 ft | 9 kts | 77° |
| 2026-04-30 20:43 | -23.43368 | -46.48114 | 2446 ft | 55 kts | 73° |
| 2026-04-30 20:43 | -23.43191 | -46.47458 | 2447 ft | 123 kts | 73° |
| 2026-04-30 20:44 | -23.42557 | -46.45040 | 3029 ft | 179 kts | 82° |
| 2026-04-30 20:44 | -23.42736 | -46.43774 | 3424 ft | 175 kts | 124° |
| 2026-04-30 20:44 | -23.44526 | -46.41694 | 3911 ft | 202 kts | 132° |
| 2026-04-30 20:45 | -23.46945 | -46.39927 | 4364 ft | 235 kts | 179° |
| 2026-04-30 20:45 | -23.48545 | -46.40447 | 4629 ft | 253 kts | 216° |
| 2026-04-30 20:45 | -23.49697 | -46.41943 | 4968 ft | 268 kts | 238° |
| 2026-04-30 20:46 | -23.52274 | -46.47485 | 6706 ft | 280 kts | 268° |
| 2026-04-30 20:46 | -23.52067 | -46.49564 | 7374 ft | 278 kts | 281° |
| 2026-04-30 20:47 | -23.51329 | -46.53693 | 8649 ft | 282 kts | 282° |
| 2026-04-30 20:47 | -23.50952 | -46.55789 | 9258 ft | 283 kts | 282° |
| 2026-04-30 20:48 | -23.50200 | -46.59987 | 10380 ft | 289 kts | 281° |
| 2026-04-30 20:48 | -23.49811 | -46.62161 | 10669 ft | 302 kts | 281° |
| 2026-04-30 20:48 | -23.49399 | -46.64466 | 10917 ft | 316 kts | 281° |
| 2026-04-30 20:48 | -23.48970 | -46.66866 | 11179 ft | 328 kts | 282° |
| 2026-04-30 20:49 | -23.48529 | -46.69333 | 11607 ft | 334 kts | 282° |
| 2026-04-30 20:49 | -23.48085 | -46.71815 | 12081 ft | 337 kts | 282° |
| 2026-04-30 20:49 | -23.47639 | -46.74311 | 12534 ft | 340 kts | 282° |
| 2026-04-30 20:50 | -23.46728 | -46.79392 | 13385 ft | 345 kts | 282° |
| 2026-04-30 20:50 | -23.46265 | -46.81974 | 13803 ft | 348 kts | 282° |
| 2026-04-30 20:50 | -23.45802 | -46.84550 | 14232 ft | 350 kts | 282° |
| 2026-04-30 20:50 | -23.45338 | -46.87128 | 14683 ft | 351 kts | 282° |
| 2026-04-30 20:51 | -23.44864 | -46.89753 | 15125 ft | 352 kts | 282° |
| 2026-04-30 20:51 | -23.43917 | -46.95000 | 15956 ft | 356 kts | 281° |
| 2026-04-30 20:51 | -23.43442 | -46.97630 | 16371 ft | 357 kts | 281° |
| 2026-04-30 20:52 | -23.42962 | -47.00289 | 16761 ft | 359 kts | 281° |
| 2026-04-30 20:52 | -23.42481 | -47.02952 | 17171 ft | 360 kts | 281° |
| 2026-04-30 20:52 | -23.41513 | -47.08305 | 17943 ft | 363 kts | 281° |
| 2026-04-30 20:53 | -23.41022 | -47.11010 | 18360 ft | 363 kts | 281° |
| 2026-04-30 20:53 | -23.40534 | -47.13698 | 18737 ft | 364 kts | 281° |
| 2026-04-30 20:53 | -23.40044 | -47.16392 | 19124 ft | 365 kts | 281° |
| 2026-04-30 20:54 | -23.39062 | -47.21790 | 19879 ft | 367 kts | 281° |
| 2026-04-30 20:54 | -23.38562 | -47.24528 | 20244 ft | 368 kts | 281° |
| 2026-04-30 20:54 | -23.38066 | -47.27247 | 20602 ft | 369 kts | 281° |
| 2026-04-30 20:55 | -23.37061 | -47.32742 | 21306 ft | 370 kts | 281° |
| 2026-04-30 20:55 | -23.36560 | -47.35479 | 21643 ft | 371 kts | 281° |
| 2026-04-30 20:55 | -23.36057 | -47.38218 | 21946 ft | 373 kts | 281° |
| 2026-04-30 20:56 | -23.35041 | -47.43750 | 22604 ft | 374 kts | 281° |
| 2026-04-30 20:56 | -23.34534 | -47.46511 | 22930 ft | 375 kts | 281° |
| 2026-04-30 20:56 | -23.33508 | -47.52094 | 23545 ft | 377 kts | 281° |
| 2026-04-30 20:57 | -23.32990 | -47.54905 | 23860 ft | 378 kts | 281° |
| 2026-04-30 20:57 | -23.32478 | -47.57684 | 24135 ft | 379 kts | 281° |
| 2026-04-30 20:57 | -23.31954 | -47.60513 | 24409 ft | 381 kts | 281° |
| 2026-04-30 20:58 | -23.30908 | -47.66158 | 24949 ft | 384 kts | 282° |
| 2026-04-30 20:58 | -23.30381 | -47.69000 | 25219 ft | 385 kts | 282° |
| 2026-04-30 20:58 | -23.29848 | -47.71870 | 25517 ft | 386 kts | 282° |
| 2026-04-30 20:58 | -23.29294 | -47.74716 | 25770 ft | 388 kts | 284° |
| 2026-04-30 20:59 | -23.27638 | -47.80298 | 26279 ft | 391 kts | 289° |
| 2026-04-30 20:59 | -23.26757 | -47.83104 | 26551 ft | 392 kts | 288° |
| 2026-04-30 21:00 | -23.25027 | -47.88706 | 27081 ft | 394 kts | 288° |
| 2026-04-30 21:00 | -23.23301 | -47.94386 | 27545 ft | 397 kts | 288° |
| 2026-04-30 21:01 | -23.21583 | -48.00068 | 28052 ft | 398 kts | 288° |
| 2026-04-30 21:01 | -23.20718 | -48.02931 | 28297 ft | 399 kts | 288° |
| 2026-04-30 21:01 | -23.18991 | -48.08653 | 28770 ft | 401 kts | 288° |
| 2026-04-30 21:02 | -23.18126 | -48.11517 | 28986 ft | 402 kts | 288° |
| 2026-04-30 21:02 | -23.17254 | -48.14402 | 29201 ft | 403 kts | 288° |
| 2026-04-30 21:02 | -23.16369 | -48.17327 | 29409 ft | 405 kts | 288° |
| 2026-04-30 21:02 | -23.15500 | -48.20200 | 29602 ft | 406 kts | 288° |
| 2026-04-30 21:03 | -23.14616 | -48.23126 | 29815 ft | 408 kts | 288° |
| 2026-04-30 21:03 | -23.13734 | -48.26036 | 30025 ft | 409 kts | 287° |
| 2026-04-30 21:03 | -23.12841 | -48.28985 | 30218 ft | 410 kts | 287° |
| 2026-04-30 21:03 | -23.11950 | -48.31923 | 30422 ft | 411 kts | 288° |
| 2026-04-30 21:04 | -23.11064 | -48.34843 | 30630 ft | 412 kts | 287° |
| 2026-04-30 21:04 | -23.10168 | -48.37793 | 30810 ft | 413 kts | 287° |
| 2026-04-30 21:04 | -23.08358 | -48.43749 | 31175 ft | 415 kts | 287° |
| 2026-04-30 21:05 | -23.07462 | -48.46695 | 31418 ft | 414 kts | 287° |
| 2026-04-30 21:05 | -23.06564 | -48.49643 | 31697 ft | 413 kts | 287° |
| 2026-04-30 21:05 | -23.05666 | -48.52590 | 31948 ft | 412 kts | 287° |
| 2026-04-30 21:05 | -23.04763 | -48.55549 | 32177 ft | 411 kts | 287° |
| 2026-04-30 21:06 | -23.03872 | -48.58466 | 32376 ft | 411 kts | 287° |
| 2026-04-30 21:06 | -23.02968 | -48.61433 | 32546 ft | 411 kts | 287° |
| 2026-04-30 21:06 | -23.02080 | -48.64337 | 32697 ft | 412 kts | 288° |
| 2026-04-30 21:06 | -23.01170 | -48.67311 | 32863 ft | 413 kts | 288° |
| 2026-04-30 21:07 | -23.00270 | -48.70248 | 33068 ft | 413 kts | 288° |
| 2026-04-30 21:07 | -22.99354 | -48.73238 | 33255 ft | 414 kts | 288° |
| 2026-04-30 21:07 | -22.98450 | -48.76185 | 33422 ft | 415 kts | 288° |
| 2026-04-30 21:07 | -22.97540 | -48.79155 | 33581 ft | 415 kts | 288° |
| 2026-04-30 21:08 | -22.96631 | -48.82116 | 33736 ft | 416 kts | 288° |
| 2026-04-30 21:08 | -22.95721 | -48.85076 | 33917 ft | 416 kts | 288° |
| 2026-04-30 21:08 | -22.94813 | -48.88033 | 34076 ft | 417 kts | 288° |
| 2026-04-30 21:08 | -22.93885 | -48.91047 | 34090 ft | 417 kts | 288° |
| 2026-04-30 21:09 | -22.92059 | -48.96969 | 34093 ft | 417 kts | 288° |
| 2026-04-30 21:09 | -22.90218 | -49.02934 | 34091 ft | 416 kts | 288° |
| 2026-04-30 21:10 | -22.88379 | -49.08887 | 34088 ft | 416 kts | 288° |
| 2026-04-30 21:10 | -22.86555 | -49.14781 | 34087 ft | 416 kts | 288° |
| 2026-04-30 21:11 | -22.84713 | -49.20731 | 34090 ft | 416 kts | 288° |
| 2026-04-30 21:11 | -22.82869 | -49.26675 | 34089 ft | 416 kts | 288° |
| 2026-04-30 21:12 | -22.81029 | -49.32593 | 34083 ft | 417 kts | 288° |
| 2026-04-30 21:12 | -22.79176 | -49.38541 | 34083 ft | 417 kts | 288° |
| 2026-04-30 21:13 | -22.77328 | -49.44471 | 34080 ft | 418 kts | 288° |
| 2026-04-30 21:13 | -22.75473 | -49.50415 | 34068 ft | 418 kts | 288° |
| 2026-04-30 21:14 | -22.73602 | -49.56398 | 34066 ft | 418 kts | 288° |
| 2026-04-30 21:14 | -22.71743 | -49.62337 | 34060 ft | 418 kts | 288° |
| 2026-04-30 21:15 | -22.69876 | -49.68290 | 34058 ft | 418 kts | 288° |
| 2026-04-30 21:15 | -22.68014 | -49.74219 | 34057 ft | 417 kts | 288° |
| 2026-04-30 21:16 | -22.66153 | -49.80135 | 34058 ft | 417 kts | 289° |
| 2026-04-30 21:16 | -22.64280 | -49.86087 | 34055 ft | 417 kts | 288° |
| 2026-04-30 21:17 | -22.62415 | -49.92000 | 34052 ft | 417 kts | 288° |
| 2026-04-30 21:17 | -22.60547 | -49.97915 | 34053 ft | 417 kts | 289° |
| 2026-04-30 21:18 | -22.58647 | -50.03924 | 34052 ft | 425 kts | 289° |
| 2026-04-30 21:18 | -22.56735 | -50.09958 | 34050 ft | 431 kts | 289° |
| 2026-04-30 21:19 | -22.54769 | -50.16152 | 34045 ft | 435 kts | 289° |
| 2026-04-30 21:19 | -22.52815 | -50.22304 | 34041 ft | 435 kts | 289° |
| 2026-04-30 21:20 | -22.50849 | -50.28482 | 34038 ft | 435 kts | 288° |
| 2026-04-30 21:20 | -22.48885 | -50.34644 | 34035 ft | 434 kts | 288° |
| 2026-04-30 21:21 | -22.46923 | -50.40791 | 34033 ft | 434 kts | 288° |
| 2026-04-30 21:22 | -22.43973 | -50.50025 | 34031 ft | 434 kts | 289° |
| 2026-04-30 21:23 | -22.40026 | -50.62338 | 34031 ft | 435 kts | 288° |
| 2026-04-30 21:23 | -22.37058 | -50.71578 | 34033 ft | 435 kts | 289° |
| 2026-04-30 21:24 | -22.35080 | -50.77726 | 34031 ft | 435 kts | 289° |
| 2026-04-30 21:24 | -22.33094 | -50.83885 | 34029 ft | 434 kts | 289° |
| 2026-04-30 21:25 | -22.30112 | -50.93117 | 34024 ft | 435 kts | 289° |
| 2026-04-30 21:26 | -22.27128 | -51.02337 | 34015 ft | 436 kts | 289° |
| 2026-04-30 21:27 | -22.24129 | -51.11585 | 34004 ft | 436 kts | 289° |
| 2026-04-30 21:27 | -22.22114 | -51.17787 | 34000 ft | 436 kts | 289° |
| 2026-04-30 21:28 | -22.19120 | -51.26985 | 33991 ft | 435 kts | 289° |
| 2026-04-30 21:29 | -22.16107 | -51.36216 | 33991 ft | 435 kts | 289° |
| 2026-04-30 21:30 | -22.11087 | -51.51563 | 33994 ft | 435 kts | 289° |
| 2026-04-30 21:31 | -22.06064 | -51.66863 | 33993 ft | 435 kts | 289° |
| 2026-04-30 21:32 | -22.03031 | -51.76073 | 33986 ft | 435 kts | 289° |
| 2026-04-30 21:32 | -22.01018 | -51.82173 | 33986 ft | 434 kts | 289° |
| 2026-04-30 21:33 | -21.97993 | -51.91331 | 33976 ft | 434 kts | 289° |
| 2026-04-30 21:34 | -21.95971 | -51.97439 | 33975 ft | 433 kts | 289° |
| 2026-04-30 21:34 | -21.92924 | -52.06630 | 33970 ft | 434 kts | 289° |
| 2026-04-30 21:35 | -21.90902 | -52.12715 | 33965 ft | 435 kts | 289° |
| 2026-04-30 21:35 | -21.88863 | -52.18848 | 33963 ft | 435 kts | 289° |
| 2026-04-30 21:36 | -21.86828 | -52.24956 | 33959 ft | 435 kts | 289° |
| 2026-04-30 21:37 | -21.82758 | -52.37153 | 33959 ft | 435 kts | 290° |
| 2026-04-30 21:37 | -21.80709 | -52.43280 | 33962 ft | 434 kts | 290° |
| 2026-04-30 21:38 | -21.78673 | -52.49358 | 33964 ft | 434 kts | 290° |
| 2026-04-30 21:38 | -21.76625 | -52.55465 | 33967 ft | 435 kts | 290° |
| 2026-04-30 21:39 | -21.74575 | -52.61568 | 33969 ft | 435 kts | 290° |
| 2026-04-30 21:39 | -21.72516 | -52.67691 | 33971 ft | 436 kts | 290° |
| 2026-04-30 21:40 | -21.70451 | -52.73824 | 33972 ft | 436 kts | 290° |
| 2026-04-30 21:40 | -21.68402 | -52.79898 | 33973 ft | 435 kts | 290° |
| 2026-04-30 21:41 | -21.66334 | -52.86026 | 33976 ft | 436 kts | 290° |
| 2026-04-30 21:41 | -21.64270 | -52.92129 | 33978 ft | 435 kts | 290° |
| 2026-04-30 21:42 | -21.62204 | -52.98231 | 33978 ft | 435 kts | 290° |
| 2026-04-30 21:42 | -21.60140 | -53.04322 | 33975 ft | 436 kts | 290° |
| 2026-04-30 21:43 | -21.58067 | -53.10425 | 33972 ft | 436 kts | 290° |
| 2026-04-30 21:43 | -21.55987 | -53.16552 | 33967 ft | 437 kts | 290° |
| 2026-04-30 21:44 | -21.54955 | -53.19584 | 33829 ft | 434 kts | 290° |
| 2026-04-30 21:44 | -21.53929 | -53.22600 | 33532 ft | 423 kts | 291° |
| 2026-04-30 21:44 | -21.52939 | -53.25512 | 33244 ft | 414 kts | 291° |
| 2026-04-30 21:44 | -21.51959 | -53.28390 | 32957 ft | 413 kts | 291° |
| 2026-04-30 21:45 | -21.50973 | -53.31287 | 32684 ft | 411 kts | 291° |
| 2026-04-30 21:45 | -21.49994 | -53.34159 | 32431 ft | 412 kts | 291° |
| 2026-04-30 21:45 | -21.49014 | -53.37024 | 32178 ft | 412 kts | 290° |
| 2026-04-30 21:45 | -21.48019 | -53.39936 | 31920 ft | 414 kts | 291° |
| 2026-04-30 21:46 | -21.46965 | -53.42794 | 31665 ft | 415 kts | 293° |
| 2026-04-30 21:46 | -21.45765 | -53.45607 | 31411 ft | 416 kts | 296° |
| 2026-04-30 21:46 | -21.44437 | -53.48342 | 31159 ft | 417 kts | 299° |
| 2026-04-30 21:46 | -21.42966 | -53.51027 | 30757 ft | 419 kts | 301° |
| 2026-04-30 21:47 | -21.41365 | -53.53632 | 30146 ft | 419 kts | 304° |
| 2026-04-30 21:47 | -21.39687 | -53.56183 | 29723 ft | 415 kts | 304° |
| 2026-04-30 21:47 | -21.38041 | -53.58683 | 29258 ft | 412 kts | 304° |
| 2026-04-30 21:47 | -21.36378 | -53.61206 | 28768 ft | 409 kts | 304° |
| 2026-04-30 21:48 | -21.34757 | -53.63665 | 28284 ft | 406 kts | 304° |
| 2026-04-30 21:48 | -21.33134 | -53.66128 | 27781 ft | 402 kts | 305° |
| 2026-04-30 21:48 | -21.31541 | -53.68541 | 27289 ft | 400 kts | 305° |
| 2026-04-30 21:48 | -21.29938 | -53.70969 | 26792 ft | 397 kts | 305° |
| 2026-04-30 21:49 | -21.28352 | -53.73371 | 26295 ft | 394 kts | 305° |
| 2026-04-30 21:49 | -21.26767 | -53.75770 | 25798 ft | 392 kts | 305° |
| 2026-04-30 21:49 | -21.25213 | -53.78119 | 25306 ft | 389 kts | 306° |
| 2026-04-30 21:49 | -21.23653 | -53.80487 | 24812 ft | 387 kts | 304° |
| 2026-04-30 21:50 | -21.22173 | -53.82858 | 24364 ft | 384 kts | 303° |
| 2026-04-30 21:50 | -21.20718 | -53.85242 | 23941 ft | 380 kts | 303° |
| 2026-04-30 21:50 | -21.19280 | -53.87602 | 23537 ft | 379 kts | 303° |
| 2026-04-30 21:50 | -21.17819 | -53.89996 | 23128 ft | 385 kts | 303° |
| 2026-04-30 21:51 | -21.16370 | -53.92363 | 22726 ft | 384 kts | 304° |
| 2026-04-30 21:51 | -21.14891 | -53.94776 | 22314 ft | 383 kts | 304° |
| 2026-04-30 21:51 | -21.13451 | -53.97123 | 21912 ft | 381 kts | 304° |
| 2026-04-30 21:51 | -21.12006 | -53.99478 | 21467 ft | 378 kts | 304° |
| 2026-04-30 21:52 | -21.10553 | -54.01842 | 20971 ft | 377 kts | 304° |
| 2026-04-30 21:52 | -21.09120 | -54.04173 | 20458 ft | 377 kts | 304° |
| 2026-04-30 21:52 | -21.07686 | -54.06504 | 19938 ft | 377 kts | 304° |
| 2026-04-30 21:52 | -21.06248 | -54.08840 | 19401 ft | 377 kts | 304° |
| 2026-04-30 21:53 | -21.04807 | -54.11181 | 18875 ft | 377 kts | 304° |
| 2026-04-30 21:53 | -21.03369 | -54.13515 | 18356 ft | 377 kts | 304° |
| 2026-04-30 21:53 | -21.01911 | -54.15881 | 17840 ft | 376 kts | 304° |
| 2026-04-30 21:53 | -21.00479 | -54.18204 | 17332 ft | 376 kts | 304° |
| 2026-04-30 21:54 | -20.99043 | -54.20531 | 16817 ft | 375 kts | 304° |
| 2026-04-30 21:54 | -20.97618 | -54.22841 | 16289 ft | 375 kts | 304° |
| 2026-04-30 21:54 | -20.96166 | -54.25194 | 15741 ft | 376 kts | 304° |
| 2026-04-30 21:54 | -20.94736 | -54.27512 | 15203 ft | 375 kts | 304° |
| 2026-04-30 21:55 | -20.93308 | -54.29824 | 14672 ft | 375 kts | 304° |
| 2026-04-30 21:55 | -20.91868 | -54.32156 | 14131 ft | 375 kts | 305° |
| 2026-04-30 21:55 | -20.90439 | -54.34470 | 13596 ft | 372 kts | 305° |
| 2026-04-30 21:55 | -20.89021 | -54.36763 | 13067 ft | 365 kts | 305° |
| 2026-04-30 21:56 | -20.87648 | -54.38983 | 12561 ft | 358 kts | 305° |
| 2026-04-30 21:56 | -20.86282 | -54.41191 | 12057 ft | 351 kts | 306° |
| 2026-04-30 21:56 | -20.84947 | -54.43351 | 11570 ft | 345 kts | 306° |
| 2026-04-30 21:56 | -20.83651 | -54.45443 | 11094 ft | 339 kts | 306° |
| 2026-04-30 21:57 | -20.82359 | -54.47529 | 10628 ft | 337 kts | 306° |
| 2026-04-30 21:57 | -20.81075 | -54.49603 | 10373 ft | 330 kts | 306° |
| 2026-04-30 21:57 | -20.79825 | -54.51619 | 10152 ft | 322 kts | 306° |
| 2026-04-30 21:57 | -20.78611 | -54.53579 | 10002 ft | 312 kts | 306° |
| 2026-04-30 21:58 | -20.77426 | -54.55491 | 9754 ft | 307 kts | 306° |
| 2026-04-30 21:58 | -20.76251 | -54.57385 | 9447 ft | 299 kts | 307° |
| 2026-04-30 21:58 | -20.75112 | -54.59220 | 9041 ft | 296 kts | 306° |
| 2026-04-30 21:58 | -20.73989 | -54.61028 | 8560 ft | 295 kts | 307° |
| 2026-04-30 21:59 | -20.72850 | -54.62864 | 8122 ft | 292 kts | 307° |
| 2026-04-30 21:59 | -20.71740 | -54.64652 | 7717 ft | 288 kts | 307° |
| 2026-04-30 21:59 | -20.70639 | -54.66423 | 7324 ft | 284 kts | 307° |
| 2026-04-30 22:00 | -20.68466 | -54.69916 | 6560 ft | 281 kts | 307° |
| 2026-04-30 22:00 | -20.66182 | -54.73226 | 5880 ft | 272 kts | 315° |
| 2026-04-30 22:00 | -20.64953 | -54.74676 | 5809 ft | 257 kts | 316° |
| 2026-04-30 22:01 | -20.63770 | -54.76059 | 5714 ft | 242 kts | 316° |
| 2026-04-30 22:01 | -20.62664 | -54.77348 | 5584 ft | 230 kts | 316° |
| 2026-04-30 22:01 | -20.61624 | -54.78560 | 5446 ft | 213 kts | 317° |
| 2026-04-30 22:01 | -20.60474 | -54.79466 | 5137 ft | 201 kts | 347° |
| 2026-04-30 22:02 | -20.59174 | -54.79307 | 4883 ft | 184 kts | 32° |
| 2026-04-30 22:02 | -20.58266 | -54.78429 | 4711 ft | 172 kts | 46° |
| 2026-04-30 22:02 | -20.57431 | -54.77546 | 4414 ft | 170 kts | 45° |
| 2026-04-30 22:02 | -20.56572 | -54.76678 | 4135 ft | 164 kts | 44° |
| 2026-04-30 22:03 | -20.55747 | -54.75864 | 3934 ft | 160 kts | 44° |
| 2026-04-30 22:03 | -20.54919 | -54.75054 | 3724 ft | 161 kts | 44° |
| 2026-04-30 22:03 | -20.54093 | -54.74250 | 3501 ft | 160 kts | 44° |
| 2026-04-30 22:03 | -20.53270 | -54.73451 | 3281 ft | 159 kts | 44° |
| 2026-04-30 22:04 | -20.52453 | -54.72659 | 3067 ft | 159 kts | 44° |
| 2026-04-30 22:04 | -20.51636 | -54.71868 | 2860 ft | 158 kts | 44° |
| 2026-04-30 22:04 | -20.50005 | -54.70303 | 2445 ft | 157 kts | 44° |
| 2026-04-30 22:05 | -20.49194 | -54.69523 | 2190 ft | 156 kts | 44° |
| 2026-04-30 22:05 | -20.48389 | -54.68743 | 2007 ft | 156 kts | 44° |
| 2026-04-30 22:05 | -20.47584 | -54.67962 | 1849 ft | 154 kts | 44° |
| 2026-04-30 22:05 | -20.46896 | -54.67294 | 1842 ft | 100 kts | 42° |
| 2026-04-30 22:06 | -20.46514 | -54.66926 | 1842 ft | 65 kts | 43° |
| 2026-04-30 22:06 | -20.46187 | -54.66615 | 1842 ft | 5 kts | 27° |
| 2026-04-30 22:06 | -20.46151 | -54.66607 | 1842 ft | 5 kts | 358° |
| 2026-04-30 22:07 | -20.46118 | -54.66616 | 1842 ft | 4 kts | 341° |
| 2026-04-30 22:07 | -20.46065 | -54.66636 | 1842 ft | 11 kts | 340° |
| 2026-04-30 22:07 | -20.46012 | -54.66675 | 1842 ft | 8 kts | 289° |
| 2026-04-30 22:07 | -20.46037 | -54.66725 | 1842 ft | 8 kts | 224° |
| 2026-04-30 22:08 | -20.46077 | -54.66765 | 1842 ft | 7 kts | 222° |
| 2026-04-30 22:08 | -20.46121 | -54.66808 | 1842 ft | 9 kts | 222° |
| 2026-04-30 22:08 | -20.46175 | -54.66860 | 1842 ft | 11 kts | 223° |
| 2026-04-30 22:08 | -20.46232 | -54.66915 | 1842 ft | 11 kts | 222° |
| 2026-04-30 22:09 | -20.46288 | -54.66969 | 1842 ft | 10 kts | 222° |
| 2026-04-30 22:09 | -20.46342 | -54.67020 | 1842 ft | 10 kts | 223° |
| 2026-04-30 22:09 | -20.46355 | -54.67083 | 1841 ft | 9 kts | 307° |
| 2026-04-30 22:09 | -20.46297 | -54.67102 | 1842 ft | 8 kts | 353° |
| 2026-04-30 22:10 | -20.46240 | -54.67109 | 1841 ft | 8 kts | 354° |
| 2026-04-30 22:10 | -20.46186 | -54.67115 | 1841 ft | 7 kts | 354° |
| 2026-04-30 22:10 | -20.46135 | -54.67121 | 1841 ft | 6 kts | 354° |
| 2026-04-30 22:10 | -20.46087 | -54.67127 | 1841 ft | 7 kts | 353° |
| 2026-04-30 22:11 | -20.45987 | -54.67138 | 1841 ft | 7 kts | 353° |
| 2026-04-30 22:11 | -20.45937 | -54.67145 | 1841 ft | 7 kts | 354° |
| 2026-04-30 22:11 | -20.45888 | -54.67135 | 1841 ft | 7 kts | 35° |
| 2026-04-30 22:12 | -20.45868 | -54.67086 | 1841 ft | 7 kts | 83° |
| 2026-04-30 22:12 | -20.45862 | -54.67032 | 1841 ft | 7 kts | 83° |
| 2026-04-30 22:12 | -20.45857 | -54.66978 | 1841 ft | 7 kts | 84° |
| 2026-04-30 22:12 | -20.45848 | -54.66934 | 1841 ft | 4 kts | 49° |
| 2026-04-30 22:13 | -20.45816 | -54.66930 | 1841 ft | 4 kts | 353° |
| 2026-04-30 22:13 | -20.45802 | -54.66931 | 1841 ft | 0 kts | 353° |
| 2026-04-30 22:13 | -20.45799 | -54.66932 | 1841 ft | 0 kts | 353° |
| 2026-04-30 22:13 | -20.45798 | -54.66932 | 1841 ft | 0 kts | 353° |